sensor_id;sensor_type;location;lat;lon;timestamp;pressure;altitude;pressure_sealevel;temperature;humidity
8627;BME280;4351;51.422;6.794;2023-01-31T00:00:10;100151.88;;;4.37;100.00
8627;BME280;4351;51.422;6.794;2023-01-31T00:02:39;100142.19;;;4.34;100.00
8627;BME280;4351;51.422;6.794;2023-01-31T00:05:08;100154.34;;;4.42;100.00
8627;BME280;4351;51.422;6.794;2023-01-31T00:07:37;100142.97;;;4.57;100.00
8627;BME280;4351;51.422;6.794;2023-01-31T00:10:09;100153.75;;;4.35;100.00
8627;BME280;4351;51.422;6.794;2023-01-31T00:12:37;100147.88;;;4.47;100.00
8627;BME280;4351;51.422;6.794;2023-01-31T00:15:05;100162.44;;;4.40;100.00
8627;BME280;4351;51.422;6.794;2023-01-31T00:17:33;100153.22;;;4.47;100.00
8627;BME280;4351;51.422;6.794;2023-01-31T00:20:03;100158.69;;;4.44;100.00
8627;BME280;4351;51.422;6.794;2023-01-31T00:22:32;100158.41;;;4.51;100.00
8627;BME280;4351;51.422;6.794;2023-01-31T00:25:00;100163.75;;;4.51;100.00
8627;BME280;4351;51.422;6.794;2023-01-31T00:27:30;100158.00;;;4.60;100.00
8627;BME280;4351;51.422;6.794;2023-01-31T00:29:58;100170.69;;;4.55;100.00
8627;BME280;4351;51.422;6.794;2023-01-31T00:32:26;100160.19;;;4.71;100.00
8627;BME280;4351;51.422;6.794;2023-01-31T00:34:55;100178.38;;;4.63;100.00
8627;BME280;4351;51.422;6.794;2023-01-31T00:37:25;100177.91;;;4.53;100.00
8627;BME280;4351;51.422;6.794;2023-01-31T00:39:53;100188.88;;;4.46;100.00
8627;BME280;4351;51.422;6.794;2023-01-31T00:42:23;100196.97;;;4.45;100.00
8627;BME280;4351;51.422;6.794;2023-01-31T00:45:17;100184.44;;;4.45;100.00
8627;BME280;4351;51.422;6.794;2023-01-31T00:47:47;100187.78;;;4.71;100.00
8627;BME280;4351;51.422;6.794;2023-01-31T00:50:16;100203.63;;;4.55;100.00
8627;BME280;4351;51.422;6.794;2023-01-31T00:52:44;100213.44;;;4.55;100.00
8627;BME280;4351;51.422;6.794;2023-01-31T00:55:13;100219.06;;;4.48;100.00
8627;BME280;4351;51.422;6.794;2023-01-31T00:57:41;100218.34;;;4.45;100.00
8627;BME280;4351;51.422;6.794;2023-01-31T01:00:11;100213.31;;;4.58;100.00
8627;BME280;4351;51.422;6.794;2023-01-31T01:02:43;100237.53;;;4.32;100.00
8627;BME280;4351;51.422;6.794;2023-01-31T01:05:11;100238.03;;;4.42;100.00
8627;BME280;4351;51.422;6.794;2023-01-31T01:07:39;100258.97;;;4.31;100.00
8627;BME280;4351;51.422;6.794;2023-01-31T01:10:09;100266.06;;;4.32;100.00
8627;BME280;4351;51.422;6.794;2023-01-31T01:12:37;100278.63;;;4.30;100.00
8627;BME280;4351;51.422;6.794;2023-01-31T01:15:06;100273.19;;;4.31;100.00
8627;BME280;4351;51.422;6.794;2023-01-31T01:17:34;100276.84;;;4.51;100.00
8627;BME280;4351;51.422;6.794;2023-01-31T01:20:05;100296.69;;;4.23;100.00
8627;BME280;4351;51.422;6.794;2023-01-31T01:22:37;100291.97;;;4.07;100.00
8627;BME280;4351;51.422;6.794;2023-01-31T01:25:06;100278.84;;;4.23;100.00
8627;BME280;4351;51.422;6.794;2023-01-31T01:27:35;100293.91;;;4.04;100.00
8627;BME280;4351;51.422;6.794;2023-01-31T01:30:04;100274.63;;;4.18;100.00
8627;BME280;4351;51.422;6.794;2023-01-31T01:32:33;100284.31;;;4.20;100.00
8627;BME280;4351;51.422;6.794;2023-01-31T01:35:03;100272.84;;;4.18;100.00
8627;BME280;4351;51.422;6.794;2023-01-31T01:37:32;100277.50;;;4.13;100.00
8627;BME280;4351;51.422;6.794;2023-01-31T01:40:00;100275.63;;;4.15;100.00
8627;BME280;4351;51.422;6.794;2023-01-31T01:42:33;100276.56;;;4.14;100.00
8627;BME280;4351;51.422;6.794;2023-01-31T01:45:04;100272.66;;;4.00;100.00
8627;BME280;4351;51.422;6.794;2023-01-31T01:47:37;100279.25;;;3.91;100.00
8627;BME280;4351;51.422;6.794;2023-01-31T01:50:12;100278.50;;;3.88;100.00
8627;BME280;4351;51.422;6.794;2023-01-31T01:52:45;100267.88;;;3.86;100.00
8627;BME280;4351;51.422;6.794;2023-01-31T01:55:20;100257.00;;;3.91;100.00
8627;BME280;4351;51.422;6.794;2023-01-31T01:57:52;100257.78;;;3.95;100.00
8627;BME280;4351;51.422;6.794;2023-01-31T02:00:24;100244.78;;;4.08;100.00
8627;BME280;4351;51.422;6.794;2023-01-31T02:02:57;100247.41;;;4.30;100.00
8627;BME280;4351;51.422;6.794;2023-01-31T02:05:30;100257.34;;;4.06;100.00
8627;BME280;4351;51.422;6.794;2023-01-31T02:16:25;100262.50;;;3.88;100.00
8627;BME280;4351;51.422;6.794;2023-01-31T02:18:56;100260.88;;;3.84;100.00
8627;BME280;4351;51.422;6.794;2023-01-31T02:22:04;100243.72;;;4.12;100.00
8627;BME280;4351;51.422;6.794;2023-01-31T02:25:21;100270.09;;;3.97;100.00
8627;BME280;4351;51.422;6.794;2023-01-31T02:28:16;100266.19;;;4.06;100.00
8627;BME280;4351;51.422;6.794;2023-01-31T02:31:24;100262.09;;;3.97;100.00
8627;BME280;4351;51.422;6.794;2023-01-31T02:34:04;100263.75;;;4.01;100.00
8627;BME280;4351;51.422;6.794;2023-01-31T02:36:48;100260.13;;;4.02;100.00
8627;BME280;4351;51.422;6.794;2023-01-31T02:39:26;100276.09;;;3.82;100.00
8627;BME280;4351;51.422;6.794;2023-01-31T02:42:04;100253.16;;;3.98;100.00
8627;BME280;4351;51.422;6.794;2023-01-31T02:44:46;100268.50;;;3.93;100.00
8627;BME280;4351;51.422;6.794;2023-01-31T02:50:28;100277.97;;;3.78;100.00
8627;BME280;4351;51.422;6.794;2023-01-31T02:53:04;100264.59;;;3.79;100.00
8627;BME280;4351;51.422;6.794;2023-01-31T02:55:48;100273.31;;;3.61;100.00
8627;BME280;4351;51.422;6.794;2023-01-31T02:58:38;100263.91;;;3.74;100.00
8627;BME280;4351;51.422;6.794;2023-01-31T03:01:15;100265.94;;;3.67;100.00
8627;BME280;4351;51.422;6.794;2023-01-31T03:03:52;100259.00;;;3.63;100.00
8627;BME280;4351;51.422;6.794;2023-01-31T03:06:49;100243.44;;;3.75;100.00
8627;BME280;4351;51.422;6.794;2023-01-31T03:09:38;100233.53;;;3.99;100.00
8627;BME280;4351;51.422;6.794;2023-01-31T03:12:25;100245.22;;;3.97;100.00
8627;BME280;4351;51.422;6.794;2023-01-31T03:15:23;100249.06;;;3.67;100.00
8627;BME280;4351;51.422;6.794;2023-01-31T03:18:31;100252.22;;;3.54;100.00
8627;BME280;4351;51.422;6.794;2023-01-31T03:21:12;100247.44;;;3.63;100.00
8627;BME280;4351;51.422;6.794;2023-01-31T03:23:50;100242.34;;;3.56;100.00
8627;BME280;4351;51.422;6.794;2023-01-31T03:26:33;100220.38;;;3.50;100.00
8627;BME280;4351;51.422;6.794;2023-01-31T03:29:10;100225.97;;;3.43;100.00
8627;BME280;4351;51.422;6.794;2023-01-31T03:31:47;100213.19;;;3.52;100.00
8627;BME280;4351;51.422;6.794;2023-01-31T03:34:28;100204.28;;;3.53;100.00
8627;BME280;4351;51.422;6.794;2023-01-31T03:37:24;100208.59;;;3.55;100.00
8627;BME280;4351;51.422;6.794;2023-01-31T03:40:11;100189.88;;;3.57;100.00
8627;BME280;4351;51.422;6.794;2023-01-31T03:42:52;100193.28;;;3.61;100.00
8627;BME280;4351;51.422;6.794;2023-01-31T03:45:29;100198.41;;;3.43;100.00
8627;BME280;4351;51.422;6.794;2023-01-31T03:48:10;100183.78;;;3.53;100.00
8627;BME280;4351;51.422;6.794;2023-01-31T03:50:49;100173.09;;;3.53;100.00
8627;BME280;4351;51.422;6.794;2023-01-31T03:53:28;100174.41;;;3.43;100.00
8627;BME280;4351;51.422;6.794;2023-01-31T03:56:07;100160.22;;;3.65;100.00
8627;BME280;4351;51.422;6.794;2023-01-31T03:58:44;100163.94;;;3.61;100.00
8627;BME280;4351;51.422;6.794;2023-01-31T04:01:17;100149.28;;;3.71;100.00
8627;BME280;4351;51.422;6.794;2023-01-31T04:03:52;100160.09;;;3.68;100.00
8627;BME280;4351;51.422;6.794;2023-01-31T04:06:27;100148.81;;;3.61;100.00
8627;BME280;4351;51.422;6.794;2023-01-31T04:09:01;100151.53;;;3.37;100.00
8627;BME280;4351;51.422;6.794;2023-01-31T04:11:35;100129.94;;;3.66;100.00
8627;BME280;4351;51.422;6.794;2023-01-31T04:14:04;100153.41;;;3.35;100.00
8627;BME280;4351;51.422;6.794;2023-01-31T04:16:33;100148.19;;;3.54;100.00
8627;BME280;4351;51.422;6.794;2023-01-31T04:19:02;100134.03;;;3.52;100.00
8627;BME280;4351;51.422;6.794;2023-01-31T04:21:31;100144.16;;;3.44;100.00
8627;BME280;4351;51.422;6.794;2023-01-31T04:23:59;100123.56;;;3.48;100.00
8627;BME280;4351;51.422;6.794;2023-01-31T04:26:27;100135.28;;;3.21;100.00
8627;BME280;4351;51.422;6.794;2023-01-31T04:28:58;100114.81;;;3.44;100.00
8627;BME280;4351;51.422;6.794;2023-01-31T04:31:26;100114.94;;;3.41;100.00
8627;BME280;4351;51.422;6.794;2023-01-31T04:33:55;100114.50;;;3.29;100.00
8627;BME280;4351;51.422;6.794;2023-01-31T04:36:24;100115.94;;;3.38;100.00
8627;BME280;4351;51.422;6.794;2023-01-31T04:38:54;100097.59;;;3.30;100.00
8627;BME280;4351;51.422;6.794;2023-01-31T04:41:22;100095.66;;;3.34;100.00
8627;BME280;4351;51.422;6.794;2023-01-31T04:43:50;100096.78;;;3.28;100.00
8627;BME280;4351;51.422;6.794;2023-01-31T04:46:19;100082.03;;;3.42;100.00
8627;BME280;4351;51.422;6.794;2023-01-31T04:48:47;100069.22;;;3.50;100.00
8627;BME280;4351;51.422;6.794;2023-01-31T04:51:15;100078.22;;;3.48;100.00
8627;BME280;4351;51.422;6.794;2023-01-31T04:53:43;100062.72;;;3.58;100.00
8627;BME280;4351;51.422;6.794;2023-01-31T04:56:11;100066.22;;;3.37;100.00
8627;BME280;4351;51.422;6.794;2023-01-31T04:58:39;100043.91;;;3.61;100.00
8627;BME280;4351;51.422;6.794;2023-01-31T05:01:09;100052.69;;;3.42;100.00
8627;BME280;4351;51.422;6.794;2023-01-31T05:03:38;100050.03;;;3.42;100.00
8627;BME280;4351;51.422;6.794;2023-01-31T05:06:07;100040.81;;;3.49;100.00
8627;BME280;4351;51.422;6.794;2023-01-31T05:08:35;100032.16;;;3.44;100.00
8627;BME280;4351;51.422;6.794;2023-01-31T05:11:04;100016.53;;;3.55;100.00
8627;BME280;4351;51.422;6.794;2023-01-31T05:13:33;100012.53;;;3.45;100.00
8627;BME280;4351;51.422;6.794;2023-01-31T05:16:05;99992.28;;;3.62;100.00
8627;BME280;4351;51.422;6.794;2023-01-31T05:18:37;99982.06;;;3.72;100.00
8627;BME280;4351;51.422;6.794;2023-01-31T05:21:07;99982.00;;;3.73;100.00
8627;BME280;4351;51.422;6.794;2023-01-31T05:23:36;99978.25;;;3.77;100.00
8627;BME280;4351;51.422;6.794;2023-01-31T05:26:12;99981.31;;;3.89;100.00
8627;BME280;4351;51.422;6.794;2023-01-31T05:28:43;99986.53;;;3.71;100.00
8627;BME280;4351;51.422;6.794;2023-01-31T05:31:14;99968.66;;;3.73;100.00
8627;BME280;4351;51.422;6.794;2023-01-31T05:33:51;99972.41;;;3.69;100.00
8627;BME280;4351;51.422;6.794;2023-01-31T05:36:25;99971.47;;;3.70;100.00
8627;BME280;4351;51.422;6.794;2023-01-31T05:39:05;99958.94;;;3.72;100.00
8627;BME280;4351;51.422;6.794;2023-01-31T05:41:47;99968.69;;;3.52;100.00
8627;BME280;4351;51.422;6.794;2023-01-31T05:44:22;99956.03;;;3.58;100.00
8627;BME280;4351;51.422;6.794;2023-01-31T05:47:02;99974.00;;;3.52;100.00
8627;BME280;4351;51.422;6.794;2023-01-31T05:49:36;99953.88;;;3.66;100.00
8627;BME280;4351;51.422;6.794;2023-01-31T05:52:13;99960.66;;;3.73;100.00
8627;BME280;4351;51.422;6.794;2023-01-31T05:54:50;99948.97;;;3.76;100.00
8627;BME280;4351;51.422;6.794;2023-01-31T05:57:27;99940.81;;;3.60;100.00
8627;BME280;4351;51.422;6.794;2023-01-31T06:00:03;99936.91;;;3.67;100.00
8627;BME280;4351;51.422;6.794;2023-01-31T06:02:46;99920.31;;;4.00;100.00
8627;BME280;4351;51.422;6.794;2023-01-31T06:05:19;99923.19;;;3.76;100.00
8627;BME280;4351;51.422;6.794;2023-01-31T06:07:54;99910.50;;;3.82;100.00
8627;BME280;4351;51.422;6.794;2023-01-31T06:10:34;99930.31;;;3.76;100.00
8627;BME280;4351;51.422;6.794;2023-01-31T06:13:02;99938.19;;;3.79;100.00
8627;BME280;4351;51.422;6.794;2023-01-31T06:15:30;99930.91;;;3.83;100.00
8627;BME280;4351;51.422;6.794;2023-01-31T06:17:58;99939.28;;;3.94;100.00
8627;BME280;4351;51.422;6.794;2023-01-31T06:20:26;99937.09;;;3.83;100.00
8627;BME280;4351;51.422;6.794;2023-01-31T06:23:00;99927.25;;;4.05;100.00
8627;BME280;4351;51.422;6.794;2023-01-31T06:25:30;99936.91;;;3.88;100.00
8627;BME280;4351;51.422;6.794;2023-01-31T06:27:58;99934.06;;;3.91;100.00
8627;BME280;4351;51.422;6.794;2023-01-31T06:30:28;99922.28;;;4.16;100.00
8627;BME280;4351;51.422;6.794;2023-01-31T06:32:59;99925.25;;;4.10;100.00
8627;BME280;4351;51.422;6.794;2023-01-31T06:35:29;99933.28;;;4.08;100.00
8627;BME280;4351;51.422;6.794;2023-01-31T06:38:00;99928.69;;;3.93;100.00
8627;BME280;4351;51.422;6.794;2023-01-31T06:40:28;99921.19;;;3.82;100.00
8627;BME280;4351;51.422;6.794;2023-01-31T06:42:57;99923.59;;;3.86;100.00
8627;BME280;4351;51.422;6.794;2023-01-31T06:45:25;99920.19;;;4.04;100.00
8627;BME280;4351;51.422;6.794;2023-01-31T06:47:53;99924.06;;;4.16;100.00
8627;BME280;4351;51.422;6.794;2023-01-31T06:50:21;99906.47;;;4.31;100.00
8627;BME280;4351;51.422;6.794;2023-01-31T06:52:49;99908.63;;;4.42;100.00
8627;BME280;4351;51.422;6.794;2023-01-31T06:55:19;99922.13;;;4.39;100.00
8627;BME280;4351;51.422;6.794;2023-01-31T06:57:48;99912.50;;;4.54;100.00
8627;BME280;4351;51.422;6.794;2023-01-31T07:00:17;99930.06;;;4.40;100.00
8627;BME280;4351;51.422;6.794;2023-01-31T07:02:46;99940.94;;;4.55;100.00
8627;BME280;4351;51.422;6.794;2023-01-31T07:05:15;99938.94;;;4.41;100.00
8627;BME280;4351;51.422;6.794;2023-01-31T07:07:43;99943.41;;;4.59;100.00
8627;BME280;4351;51.422;6.794;2023-01-31T07:10:12;99956.03;;;4.56;100.00
8627;BME280;4351;51.422;6.794;2023-01-31T07:12:41;99969.03;;;4.64;100.00
8627;BME280;4351;51.422;6.794;2023-01-31T07:15:10;99981.00;;;4.55;100.00
8627;BME280;4351;51.422;6.794;2023-01-31T07:17:38;99981.38;;;4.66;100.00
8627;BME280;4351;51.422;6.794;2023-01-31T07:20:07;99992.72;;;4.71;100.00
8627;BME280;4351;51.422;6.794;2023-01-31T07:22:37;100013.56;;;4.63;100.00
8627;BME280;4351;51.422;6.794;2023-01-31T07:25:08;100014.53;;;4.62;100.00
8627;BME280;4351;51.422;6.794;2023-01-31T07:27:38;100013.31;;;4.69;100.00
8627;BME280;4351;51.422;6.794;2023-01-31T07:30:09;100046.78;;;4.77;100.00
8627;BME280;4351;51.422;6.794;2023-01-31T07:32:37;100068.47;;;4.90;100.00
8627;BME280;4351;51.422;6.794;2023-01-31T07:35:11;100089.91;;;4.69;100.00
8627;BME280;4351;51.422;6.794;2023-01-31T07:37:39;100109.56;;;4.68;100.00
8627;BME280;4351;51.422;6.794;2023-01-31T07:40:10;100093.81;;;4.81;100.00
8627;BME280;4351;51.422;6.794;2023-01-31T07:42:38;100114.69;;;4.72;100.00
8627;BME280;4351;51.422;6.794;2023-01-31T07:45:11;100129.63;;;4.77;100.00
8627;BME280;4351;51.422;6.794;2023-01-31T07:47:49;100117.56;;;4.87;100.00
8627;BME280;4351;51.422;6.794;2023-01-31T07:50:18;100122.94;;;4.87;100.00
8627;BME280;4351;51.422;6.794;2023-01-31T07:52:47;100139.13;;;4.84;100.00
8627;BME280;4351;51.422;6.794;2023-01-31T07:55:18;100144.47;;;4.84;100.00
8627;BME280;4351;51.422;6.794;2023-01-31T07:57:52;100145.34;;;4.85;100.00
8627;BME280;4351;51.422;6.794;2023-01-31T08:00:26;100157.16;;;4.79;100.00
8627;BME280;4351;51.422;6.794;2023-01-31T08:03:22;100157.47;;;4.92;100.00
8627;BME280;4351;51.422;6.794;2023-01-31T08:06:00;100171.75;;;4.71;100.00
8627;BME280;4351;51.422;6.794;2023-01-31T08:08:29;100153.56;;;4.99;100.00
8627;BME280;4351;51.422;6.794;2023-01-31T08:10:57;100175.53;;;4.87;100.00
8627;BME280;4351;51.422;6.794;2023-01-31T08:13:25;100176.38;;;4.87;100.00
8627;BME280;4351;51.422;6.794;2023-01-31T08:15:54;100180.94;;;4.85;100.00
8627;BME280;4351;51.422;6.794;2023-01-31T08:18:22;100171.63;;;4.94;100.00
8627;BME280;4351;51.422;6.794;2023-01-31T08:20:50;100177.63;;;4.80;100.00
8627;BME280;4351;51.422;6.794;2023-01-31T08:23:20;100179.81;;;4.91;100.00
8627;BME280;4351;51.422;6.794;2023-01-31T08:25:48;100186.44;;;4.82;100.00
8627;BME280;4351;51.422;6.794;2023-01-31T08:28:17;100170.63;;;4.97;100.00
8627;BME280;4351;51.422;6.794;2023-01-31T08:30:47;100178.00;;;4.91;100.00
8627;BME280;4351;51.422;6.794;2023-01-31T08:33:39;100180.22;;;5.01;100.00
8627;BME280;4351;51.422;6.794;2023-01-31T08:36:16;100162.97;;;4.89;100.00
8627;BME280;4351;51.422;6.794;2023-01-31T08:38:48;100141.38;;;4.93;100.00
8627;BME280;4351;51.422;6.794;2023-01-31T08:41:18;100098.94;;;5.05;100.00
8627;BME280;4351;51.422;6.794;2023-01-31T08:43:46;100095.41;;;5.04;100.00
8627;BME280;4351;51.422;6.794;2023-01-31T08:46:23;100074.81;;;4.87;100.00
8627;BME280;4351;51.422;6.794;2023-01-31T08:48:54;100048.25;;;4.84;100.00
8627;BME280;4351;51.422;6.794;2023-01-31T08:51:22;100034.44;;;4.93;100.00
8627;BME280;4351;51.422;6.794;2023-01-31T08:53:50;100012.53;;;4.85;100.00
8627;BME280;4351;51.422;6.794;2023-01-31T08:56:19;99998.38;;;4.83;100.00
8627;BME280;4351;51.422;6.794;2023-01-31T08:58:53;99982.91;;;4.90;100.00
8627;BME280;4351;51.422;6.794;2023-01-31T09:01:23;99971.03;;;4.78;100.00
8627;BME280;4351;51.422;6.794;2023-01-31T09:03:51;99949.03;;;4.90;100.00
8627;BME280;4351;51.422;6.794;2023-01-31T09:06:25;99929.41;;;4.91;100.00
8627;BME280;4351;51.422;6.794;2023-01-31T09:08:55;99917.31;;;5.02;100.00
8627;BME280;4351;51.422;6.794;2023-01-31T09:11:27;99929.53;;;4.88;100.00
8627;BME280;4351;51.422;6.794;2023-01-31T09:13:56;99907.16;;;5.09;100.00
8627;BME280;4351;51.422;6.794;2023-01-31T09:16:25;99906.13;;;5.11;100.00
8627;BME280;4351;51.422;6.794;2023-01-31T09:18:53;99913.13;;;4.96;100.00
8627;BME280;4351;51.422;6.794;2023-01-31T09:21:24;99886.78;;;5.06;100.00
8627;BME280;4351;51.422;6.794;2023-01-31T09:23:56;99886.78;;;5.06;100.00
8627;BME280;4351;51.422;6.794;2023-01-31T09:26:27;99875.47;;;5.18;100.00
8627;BME280;4351;51.422;6.794;2023-01-31T09:28:57;99874.81;;;5.31;100.00
8627;BME280;4351;51.422;6.794;2023-01-31T09:31:27;99881.59;;;5.21;100.00
8627;BME280;4351;51.422;6.794;2023-01-31T09:33:56;99880.34;;;5.28;100.00
8627;BME280;4351;51.422;6.794;2023-01-31T09:36:26;99889.94;;;5.32;100.00
8627;BME280;4351;51.422;6.794;2023-01-31T09:38:56;99886.78;;;5.42;100.00
8627;BME280;4351;51.422;6.794;2023-01-31T09:41:29;99888.34;;;5.46;100.00
8627;BME280;4351;51.422;6.794;2023-01-31T09:44:02;99878.88;;;5.56;100.00
8627;BME280;4351;51.422;6.794;2023-01-31T09:46:35;99919.03;;;5.38;100.00
8627;BME280;4351;51.422;6.794;2023-01-31T09:49:06;99904.09;;;5.34;100.00
8627;BME280;4351;51.422;6.794;2023-01-31T09:51:38;99904.72;;;5.39;100.00
8627;BME280;4351;51.422;6.794;2023-01-31T09:54:16;99895.25;;;5.50;100.00
8627;BME280;4351;51.422;6.794;2023-01-31T09:56:51;99905.56;;;5.40;100.00
8627;BME280;4351;51.422;6.794;2023-01-31T09:59:29;99911.22;;;5.34;100.00
8627;BME280;4351;51.422;6.794;2023-01-31T10:02:14;99898.06;;;5.47;100.00
8627;BME280;4351;51.422;6.794;2023-01-31T10:04:56;99895.66;;;5.42;100.00
8627;BME280;4351;51.422;6.794;2023-01-31T10:07:37;99905.34;;;5.27;100.00
8627;BME280;4351;51.422;6.794;2023-01-31T10:10:15;99888.03;;;5.16;100.00
8627;BME280;4351;51.422;6.794;2023-01-31T10:12:51;99882.13;;;5.27;100.00
8627;BME280;4351;51.422;6.794;2023-01-31T10:15:28;99852.81;;;5.26;100.00
8627;BME280;4351;51.422;6.794;2023-01-31T10:18:02;99837.84;;;5.39;100.00
8627;BME280;4351;51.422;6.794;2023-01-31T10:20:37;99837.66;;;5.43;100.00
8627;BME280;4351;51.422;6.794;2023-01-31T10:23:14;99828.25;;;5.35;100.00
8627;BME280;4351;51.422;6.794;2023-01-31T10:25:49;99824.13;;;5.46;100.00
8627;BME280;4351;51.422;6.794;2023-01-31T10:28:21;99812.06;;;5.55;100.00
8627;BME280;4351;51.422;6.794;2023-01-31T10:30:56;99804.88;;;5.55;100.00
8627;BME280;4351;51.422;6.794;2023-01-31T10:33:35;99792.50;;;5.70;100.00
8627;BME280;4351;51.422;6.794;2023-01-31T10:36:12;99798.94;;;5.66;100.00
8627;BME280;4351;51.422;6.794;2023-01-31T10:38:51;99799.66;;;5.70;100.00
8627;BME280;4351;51.422;6.794;2023-01-31T10:41:30;99808.47;;;5.72;100.00
8627;BME280;4351;51.422;6.794;2023-01-31T10:44:07;99801.66;;;5.82;100.00
8627;BME280;4351;51.422;6.794;2023-01-31T10:46:40;99794.13;;;5.73;100.00
8627;BME280;4351;51.422;6.794;2023-01-31T10:49:09;99791.38;;;5.91;100.00
8627;BME280;4351;51.422;6.794;2023-01-31T10:51:49;99804.31;;;5.82;100.00
8627;BME280;4351;51.422;6.794;2023-01-31T10:54:33;99805.53;;;5.77;100.00
8627;BME280;4351;51.422;6.794;2023-01-31T10:57:06;99803.28;;;5.85;100.00
8627;BME280;4351;51.422;6.794;2023-01-31T10:59:36;99807.78;;;5.84;100.00
8627;BME280;4351;51.422;6.794;2023-01-31T11:02:17;99803.28;;;5.85;100.00
8627;BME280;4351;51.422;6.794;2023-01-31T11:04:49;99796.47;;;5.95;100.00
8627;BME280;4351;51.422;6.794;2023-01-31T11:07:18;99810.53;;;5.99;100.00
8627;BME280;4351;51.422;6.794;2023-01-31T11:09:51;99813.13;;;5.84;100.00
8627;BME280;4351;51.422;6.794;2023-01-31T11:12:21;99809.16;;;5.92;100.00
8627;BME280;4351;51.422;6.794;2023-01-31T11:15:05;99810.19;;;5.89;100.00
8627;BME280;4351;51.422;6.794;2023-01-31T11:17:36;99807.28;;;5.94;100.00
8627;BME280;4351;51.422;6.794;2023-01-31T11:20:05;99789.41;;;5.94;100.00
8627;BME280;4351;51.422;6.794;2023-01-31T11:22:36;99800.59;;;6.01;100.00
8627;BME280;4351;51.422;6.794;2023-01-31T11:25:17;99798.28;;;5.95;100.00
8627;BME280;4351;51.422;6.794;2023-01-31T11:27:47;99807.28;;;5.94;100.00
8627;BME280;4351;51.422;6.794;2023-01-31T11:30:21;99790.53;;;6.06;100.00
8627;BME280;4351;51.422;6.794;2023-01-31T11:32:54;99791.31;;;6.08;100.00
8627;BME280;4351;51.422;6.794;2023-01-31T11:35:26;99786.28;;;6.02;100.00
8627;BME280;4351;51.422;6.794;2023-01-31T11:37:56;99793.06;;;6.09;100.00
8627;BME280;4351;51.422;6.794;2023-01-31T11:40:29;99795.09;;;6.04;100.00
8627;BME280;4351;51.422;6.794;2023-01-31T11:42:59;99791.47;;;6.05;100.00
8627;BME280;4351;51.422;6.794;2023-01-31T11:45:29;99783.59;;;6.02;100.00
8627;BME280;4351;51.422;6.794;2023-01-31T11:48:05;99766.00;;;6.14;100.00
8627;BME280;4351;51.422;6.794;2023-01-31T11:50:36;99760.81;;;6.27;100.00
8627;BME280;4351;51.422;6.794;2023-01-31T11:53:15;99765.81;;;6.34;100.00
8627;BME280;4351;51.422;6.794;2023-01-31T11:55:47;99779.06;;;6.20;100.00
8627;BME280;4351;51.422;6.794;2023-01-31T11:58:19;99780.75;;;6.21;100.00
8627;BME280;4351;51.422;6.794;2023-01-31T12:00:53;99763.91;;;6.36;100.00
8627;BME280;4351;51.422;6.794;2023-01-31T12:03:23;99751.72;;;6.61;100.00
8627;BME280;4351;51.422;6.794;2023-01-31T12:05:59;99765.25;;;6.43;100.00
8627;BME280;4351;51.422;6.794;2023-01-31T12:08:30;99772.44;;;6.42;100.00
8627;BME280;4351;51.422;6.794;2023-01-31T12:11:03;99770.75;;;6.56;100.00
8627;BME280;4351;51.422;6.794;2023-01-31T12:13:45;99782.09;;;6.45;100.00
8627;BME280;4351;51.422;6.794;2023-01-31T12:16:16;99773.88;;;6.48;100.00
8627;BME280;4351;51.422;6.794;2023-01-31T12:18:57;99789.66;;;6.38;100.00
8627;BME280;4351;51.422;6.794;2023-01-31T12:21:48;99797.94;;;6.34;100.00
8627;BME280;4351;51.422;6.794;2023-01-31T12:24:28;99770.06;;;6.52;100.00
8627;BME280;4351;51.422;6.794;2023-01-31T12:27:09;99770.25;;;6.49;100.00
8627;BME280;4351;51.422;6.794;2023-01-31T12:29:55;99772.19;;;6.47;100.00
8627;BME280;4351;51.422;6.794;2023-01-31T12:32:44;99761.72;;;6.42;100.00
8627;BME280;4351;51.422;6.794;2023-01-31T12:35:27;99757.03;;;6.46;100.00
8627;BME280;4351;51.422;6.794;2023-01-31T12:38:12;99745.66;;;6.42;100.00
8627;BME280;4351;51.422;6.794;2023-01-31T12:40:51;99738.09;;;6.49;100.00
8627;BME280;4351;51.422;6.794;2023-01-31T12:43:39;99725.28;;;6.54;100.00
8627;BME280;4351;51.422;6.794;2023-01-31T12:46:16;99722.97;;;6.48;100.00
8627;BME280;4351;51.422;6.794;2023-01-31T12:49:08;99713.78;;;6.52;100.00
8627;BME280;4351;51.422;6.794;2023-01-31T12:51:49;99708.34;;;6.54;100.00
8627;BME280;4351;51.422;6.794;2023-01-31T12:54:37;99708.63;;;6.49;100.00
8627;BME280;4351;51.422;6.794;2023-01-31T12:57:23;99689.50;;;6.70;100.00
8627;BME280;4351;51.422;6.794;2023-01-31T13:00:05;99695.91;;;6.67;100.00
8627;BME280;4351;51.422;6.794;2023-01-31T13:02:44;99698.72;;;6.81;100.00
8627;BME280;4351;51.422;6.794;2023-01-31T13:05:24;99699.00;;;6.76;100.00
8627;BME280;4351;51.422;6.794;2023-01-31T13:07:59;99698.16;;;6.75;100.00
8627;BME280;4351;51.422;6.794;2023-01-31T13:10:34;99695.34;;;6.62;100.00
8627;BME280;4351;51.422;6.794;2023-01-31T13:13:06;99696.69;;;6.70;100.00
8627;BME280;4351;51.422;6.794;2023-01-31T13:15:43;99683.56;;;6.65;100.00
8627;BME280;4351;51.422;6.794;2023-01-31T13:18:13;99658.44;;;6.82;100.00
8627;BME280;4351;51.422;6.794;2023-01-31T13:20:45;99667.31;;;6.68;100.00
8627;BME280;4351;51.422;6.794;2023-01-31T13:23:19;99646.25;;;6.62;100.00
8627;BME280;4351;51.422;6.794;2023-01-31T13:25:52;99636.63;;;6.43;100.00
8627;BME280;4351;51.422;6.794;2023-01-31T13:28:24;99603.38;;;6.47;100.00
8627;BME280;4351;51.422;6.794;2023-01-31T13:30:57;99573.13;;;6.60;100.00
8627;BME280;4351;51.422;6.794;2023-01-31T13:33:31;99561.81;;;6.54;100.00
8627;BME280;4351;51.422;6.794;2023-01-31T13:36:10;99544.19;;;6.65;100.00
8627;BME280;4351;51.422;6.794;2023-01-31T13:38:44;99568.63;;;6.60;100.00
8627;BME280;4351;51.422;6.794;2023-01-31T13:41:19;99567.94;;;6.57;100.00
8627;BME280;4351;51.422;6.794;2023-01-31T13:43:47;99565.47;;;6.53;100.00
8627;BME280;4351;51.422;6.794;2023-01-31T13:46:19;99554.94;;;6.50;100.00
8627;BME280;4351;51.422;6.794;2023-01-31T13:48:54;99574.75;;;6.48;100.00
8627;BME280;4351;51.422;6.794;2023-01-31T13:51:27;99587.84;;;6.52;100.00
8627;BME280;4351;51.422;6.794;2023-01-31T13:54:00;99558.94;;;6.43;100.00
8627;BME280;4351;51.422;6.794;2023-01-31T13:56:33;99557.81;;;6.62;100.00
8627;BME280;4351;51.422;6.794;2023-01-31T13:59:06;99556.97;;;6.47;100.00
8627;BME280;4351;51.422;6.794;2023-01-31T14:01:43;99558.75;;;6.61;100.00
8627;BME280;4351;51.422;6.794;2023-01-31T14:04:28;99571.28;;;6.46;100.00